Time;durP1;ratioP1;P1;durP2;ratioP2;P2;SDS_P1;SDS_P2;PMS_P1;PMS_P2;Temp;Humidity;BMP_temperature;BMP_pressure;BME280_temperature;BME280_humidity;BME280_pressure;Samples;Min_cycle;Max_cycle;Signal;HPM_P1;HPM_P2
2022/07/21 00:02:02;;;;;;;20.67;18.93;;;21.90;99.90;;;;;;4998917;28;20448;-80
2022/07/21 00:04:28;;;;;;;22.20;20.30;;;21.90;99.90;;;;;;4999127;28;20454;-80
2022/07/21 00:06:55;;;;;;;21.70;19.90;;;21.90;99.90;;;;;;4998678;28;20447;-79
2022/07/21 00:09:22;;;;;;;20.23;18.43;;;22.00;99.90;;;;;;5000915;28;20447;-80
2022/07/21 00:11:48;;;;;;;21.47;19.67;;;22.00;99.90;;;;;;5003631;28;20538;-80
2022/07/21 00:14:15;;;;;;;21.13;19.33;;;22.00;99.90;;;;;;5001896;28;20454;-80
2022/07/21 00:16:43;;;;;;;23.13;21.33;;;22.00;99.90;;;;;;4999008;28;20436;-81
2022/07/21 00:19:12;;;;;;;23.60;21.60;;;21.90;99.90;;;;;;5002395;28;20475;-80
2022/07/21 00:21:39;;;;;;;24.60;22.70;;;22.00;99.90;;;;;;5007611;28;20452;-80
2022/07/21 00:24:05;;;;;;;23.40;21.43;;;21.90;99.90;;;;;;5001737;28;20477;-81
2022/07/21 00:26:33;;;;;;;24.10;22.00;;;21.90;99.90;;;;;;5001771;28;20455;-81
2022/07/21 00:28:59;;;;;;;22.87;20.97;;;22.00;99.90;;;;;;5000043;28;20471;-82
2022/07/21 00:31:26;;;;;;;21.53;19.73;;;22.00;99.90;;;;;;4998468;28;21066;-82
2022/07/21 00:33:53;;;;;;;19.67;17.97;;;22.00;99.90;;;;;;4998063;28;20498;-82
2022/07/21 00:36:22;;;;;;;19.33;17.83;;;21.90;99.90;;;;;;4998535;28;20455;-80
2022/07/21 00:38:49;;;;;;;20.33;18.73;;;21.90;99.90;;;;;;4998075;28;20478;-80
2022/07/21 00:41:16;;;;;;;20.73;19.07;;;21.80;99.90;;;;;;4998337;28;20807;-80
2022/07/21 00:43:43;;;;;;;21.60;19.87;;;21.80;99.90;;;;;;4998275;28;20458;-80
2022/07/21 00:46:09;;;;;;;22.47;20.67;;;21.80;99.90;;;;;;4997179;28;20451;-80
2022/07/21 00:48:36;;;;;;;23.17;20.67;;;21.80;99.90;;;;;;4998016;28;20472;-80
2022/07/21 00:51:03;;;;;;;20.67;18.73;;;21.80;99.90;;;;;;4997592;28;20831;-80
2022/07/21 00:53:31;;;;;;;20.83;19.13;;;21.80;99.90;;;;;;4997847;28;20487;-80
2022/07/21 00:55:59;;;;;;;22.77;20.77;;;21.90;99.90;;;;;;5009033;28;20438;-79
2022/07/21 00:58:26;;;;;;;21.87;20.23;;;21.90;99.90;;;;;;5015259;28;20502;-80
2022/07/21 01:00:53;;;;;;;21.53;19.73;;;22.00;99.90;;;;;;5003746;28;20452;-80
2022/07/21 01:03:20;;;;;;;25.40;20.50;;;22.00;99.90;;;;;;4998796;28;20447;-80
2022/07/21 01:05:47;;;;;;;23.27;21.40;;;22.00;99.90;;;;;;4998725;28;20459;-80
2022/07/21 01:08:15;;;;;;;23.17;21.27;;;22.00;99.90;;;;;;4997729;28;20470;-80
2022/07/21 01:10:43;;;;;;;21.93;20.03;;;22.00;99.90;;;;;;4999641;28;20439;-81
2022/07/21 01:13:10;;;;;;;20.50;18.67;;;22.10;99.90;;;;;;4999060;28;20490;-81
2022/07/21 01:15:37;;;;;;;21.87;19.97;;;22.00;99.90;;;;;;5001680;28;20460;-82
2022/07/21 01:18:04;;;;;;;19.50;17.70;;;22.00;99.90;;;;;;4998043;28;20482;-81
2022/07/21 01:20:34;;;;;;;19.20;17.60;;;22.00;99.90;;;;;;4998320;28;20444;-81
2022/07/21 01:23:04;;;;;;;18.20;16.53;;;22.00;99.90;;;;;;4998028;28;20447;-81
2022/07/21 01:25:31;;;;;;;18.03;16.63;;;22.00;99.90;;;;;;5001599;28;20535;-81
2022/07/21 01:27:58;;;;;;;19.57;17.87;;;21.90;99.90;;;;;;5001659;28;20472;-81
2022/07/21 01:30:25;;;;;;;19.40;17.70;;;22.00;99.90;;;;;;4999605;28;20459;-82
2022/07/21 01:32:52;;;;;;;18.10;16.60;;;22.00;99.90;;;;;;4997726;28;20490;-80
2022/07/21 01:35:19;;;;;;;18.90;16.90;;;22.00;99.90;;;;;;4997166;28;20455;-81
2022/07/21 01:37:48;;;;;;;19.80;18.13;;;22.00;99.90;;;;;;4997581;28;20857;-81
2022/07/21 01:43:03;;;;;;;20.83;19.10;;;21.90;99.90;;;;;;4997406;28;20857;-82
2022/07/21 01:45:30;;;;;;;18.30;16.80;;;21.90;99.90;;;;;;5018642;28;20428;-81
2022/07/21 01:47:57;;;;;;;19.13;17.33;;;21.80;99.90;;;;;;5019623;28;20452;-81
2022/07/21 01:50:26;;;;;;;19.60;17.80;;;21.80;99.90;;;;;;4997909;28;20513;-81
2022/07/21 01:52:53;;;;;;;19.07;17.20;;;21.80;99.90;;;;;;4996100;28;20491;-82
2022/07/21 01:55:22;;;;;;;17.30;16.00;;;21.90;99.90;;;;;;4996130;28;20435;-81
2022/07/21 01:57:49;;;;;;;17.97;16.47;;;22.00;99.90;;;;;;4996451;28;20455;-82
2022/07/21 02:00:16;;;;;;;16.97;15.57;;;22.00;99.90;;;;;;4997547;28;20840;-81
2022/07/21 02:02:43;;;;;;;17.30;15.73;;;22.00;99.90;;;;;;4996589;28;20443;-81
2022/07/21 02:05:10;;;;;;;16.70;15.00;;;22.00;99.90;;;;;;4997134;28;20458;-80
2022/07/21 02:07:36;;;;;;;15.67;14.47;;;22.00;99.90;;;;;;4996821;28;20478;-80
2022/07/21 02:10:04;;;;;;;19.97;17.97;;;22.00;99.90;;;;;;5007977;28;20470;-80
2022/07/21 02:12:32;;;;;;;17.60;16.13;;;22.10;99.90;;;;;;5006333;28;20773;-81
2022/07/21 02:14:59;;;;;;;18.27;16.50;;;22.00;99.90;;;;;;5000843;28;20534;-81
2022/07/21 02:17:25;;;;;;;18.87;17.27;;;21.90;99.90;;;;;;4998893;28;20494;-82
2022/07/21 02:19:52;;;;;;;17.57;15.93;;;21.90;99.90;;;;;;4998535;28;20432;-80
2022/07/21 02:22:19;;;;;;;17.13;15.60;;;21.80;99.90;;;;;;4998093;28;20440;-82
2022/07/21 02:24:45;;;;;;;18.13;16.67;;;21.70;99.90;;;;;;4997602;28;20462;-81
2022/07/21 02:27:12;;;;;;;17.63;15.83;;;21.60;99.90;;;;;;4999170;28;20880;-82
2022/07/21 02:29:40;;;;;;;18.27;16.63;;;21.50;99.90;;;;;;4998208;28;20461;-82
2022/07/21 02:32:07;;;;;;;18.53;17.13;;;21.40;99.90;;;;;;4998383;28;20476;-81
2022/07/21 02:34:34;;;;;;;19.50;17.77;;;21.30;99.90;;;;;;4997131;28;20957;-82
2022/07/21 02:37:00;;;;;;;18.47;16.90;;;21.30;99.90;;;;;;4996410;28;20527;-82
2022/07/21 02:39:27;;;;;;;18.70;16.90;;;21.30;99.90;;;;;;4998171;28;20831;-82
2022/07/21 02:41:54;;;;;;;19.13;17.60;;;21.20;99.90;;;;;;4997989;28;20448;-81
2022/07/21 02:44:21;;;;;;;18.70;17.10;;;21.20;99.90;;;;;;4997595;28;20510;-82
2022/07/21 02:46:49;;;;;;;19.50;17.70;;;21.10;99.90;;;;;;4997250;28;20439;-82
2022/07/21 02:49:15;;;;;;;18.83;17.10;;;21.00;99.90;;;;;;4996844;28;20474;-82
2022/07/21 02:51:42;;;;;;;18.43;16.80;;;21.00;99.90;;;;;;4996132;28;20976;-82
2022/07/21 02:54:09;;;;;;;18.10;16.60;;;20.90;99.90;;;;;;4996105;28;20491;-82
2022/07/21 02:56:38;;;;;;;16.93;14.90;;;20.90;99.90;;;;;;5001809;28;20486;-81
2022/07/21 02:59:05;;;;;;;16.97;15.37;;;20.90;99.90;;;;;;5016245;28;20479;-82
2022/07/21 03:01:33;;;;;;;17.70;16.00;;;20.70;99.90;;;;;;5020793;28;20466;-81
2022/07/21 03:04:02;;;;;;;16.93;15.23;;;20.80;99.90;;;;;;5020697;28;20439;-81
2022/07/21 03:06:30;;;;;;;17.47;15.87;;;20.70;99.90;;;;;;5031099;28;20462;-81
2022/07/21 03:08:58;;;;;;;16.67;15.27;;;20.80;99.90;;;;;;5029915;28;20466;-82
2022/07/21 03:11:25;;;;;;;18.80;17.20;;;20.80;99.90;;;;;;5025990;28;20451;-82
2022/07/21 03:13:52;;;;;;;18.17;16.43;;;20.80;99.90;;;;;;5018925;28;21061;-82
2022/07/21 03:16:19;;;;;;;18.67;17.00;;;20.80;99.90;;;;;;5014548;28;20462;-82
2022/07/21 03:18:46;;;;;;;17.20;15.80;;;20.80;99.90;;;;;;5018484;28;20998;-82
2022/07/21 03:21:14;;;;;;;17.97;16.33;;;20.80;99.90;;;;;;5010617;28;20442;-82
2022/07/21 03:23:45;;;;;;;16.03;14.43;;;20.90;99.90;;;;;;5009673;28;20558;-82
2022/07/21 03:26:12;;;;;;;16.17;14.87;;;20.90;99.90;;;;;;5015152;28;20939;-82
2022/07/21 03:28:39;;;;;;;18.10;16.60;;;20.90;99.90;;;;;;5012308;28;20462;-82
2022/07/21 03:31:06;;;;;;;17.23;15.73;;;20.90;99.90;;;;;;5018315;28;20442;-81
2022/07/21 03:33:33;;;;;;;17.20;15.77;;;21.00;99.90;;;;;;5032398;28;20469;-79
2022/07/21 03:36:00;;;;;;;17.97;16.53;;;21.00;99.90;;;;;;5032873;28;20439;-80
2022/07/21 03:38:28;;;;;;;16.63;15.33;;;21.10;99.90;;;;;;5019900;28;20466;-81
2022/07/21 03:40:55;;;;;;;17.20;15.50;;;21.10;99.90;;;;;;5015676;28;20943;-81
2022/07/21 03:43:22;;;;;;;16.30;14.80;;;21.10;99.90;;;;;;5012401;28;20438;-81
2022/07/21 03:45:48;;;;;;;16.00;14.67;;;21.20;99.90;;;;;;5010112;28;20490;-80
2022/07/21 03:48:15;;;;;;;15.93;14.73;;;21.30;99.90;;;;;;5010784;28;20458;-80
2022/07/21 03:50:43;;;;;;;17.83;16.23;;;21.30;99.90;;;;;;5012138;28;20820;-81
2022/07/21 03:53:09;;;;;;;17.50;15.80;;;21.30;99.90;;;;;;5018395;28;20471;-80
2022/07/21 03:55:37;;;;;;;14.97;13.70;;;21.30;99.90;;;;;;5017880;28;20446;-81
2022/07/21 03:58:06;;;;;;;16.23;14.93;;;21.30;99.90;;;;;;5013569;28;20481;-81
2022/07/21 04:00:35;;;;;;;15.73;14.27;;;21.30;99.90;;;;;;5017761;28;20449;-82
2022/07/21 04:03:02;;;;;;;16.60;14.90;;;21.40;99.90;;;;;;5016648;28;20441;-82
2022/07/21 04:05:30;;;;;;;14.83;13.63;;;21.40;99.90;;;;;;5009994;28;20445;-81
2022/07/21 04:07:57;;;;;;;15.47;14.27;;;21.40;99.90;;;;;;5010353;28;20804;-81
2022/07/21 04:10:27;;;;;;;15.47;14.00;;;21.40;99.90;;;;;;5010886;28;20442;-81
2022/07/21 04:12:56;;;;;;;14.30;13.10;;;21.40;99.90;;;;;;5008695;28;20475;-81
2022/07/21 04:15:23;;;;;;;13.53;12.50;;;21.50;99.90;;;;;;5009534;28;20457;-81
2022/07/21 04:17:50;;;;;;;15.13;13.93;;;21.50;99.90;;;;;;5009452;28;20474;-81
2022/07/21 04:20:18;;;;;;;15.37;14.00;;;21.50;99.90;;;;;;5013878;28;20470;-81
2022/07/21 04:22:49;;;;;;;15.70;14.03;;;21.50;99.90;;;;;;5011191;28;20457;-81
2022/07/21 04:25:17;;;;;;;15.00;13.50;;;21.40;99.90;;;;;;5012740;28;20443;-80
2022/07/21 04:27:45;;;;;;;14.70;13.53;;;21.40;99.90;;;;;;5016286;28;20457;-81
2022/07/21 04:30:17;;;;;;;16.17;14.87;;;21.40;99.90;;;;;;5015734;28;20524;-82
2022/07/21 04:32:44;;;;;;;15.10;13.80;;;21.50;99.90;;;;;;5018264;28;20494;-81
2022/07/21 04:35:11;;;;;;;15.93;14.53;;;21.60;99.90;;;;;;5013394;28;20446;-80
2022/07/21 04:37:38;;;;;;;16.53;15.13;;;21.50;99.90;;;;;;5013856;28;20466;-80
2022/07/21 04:40:07;;;;;;;15.93;14.60;;;21.50;99.90;;;;;;5014397;28;20439;-80
2022/07/21 04:42:34;;;;;;;16.17;14.97;;;21.60;99.90;;;;;;5014166;28;20923;-80
2022/07/21 04:45:01;;;;;;;18.17;16.70;;;21.60;99.90;;;;;;5014075;28;20454;-81
2022/07/21 04:47:30;;;;;;;17.57;16.07;;;21.60;99.90;;;;;;5016035;28;20466;-81
2022/07/21 04:49:59;;;;;;;17.30;15.67;;;21.60;99.90;;;;;;5019913;28;20441;-82
2022/07/21 04:52:28;;;;;;;17.60;16.30;;;21.60;99.90;;;;;;5017694;28;20492;-81
2022/07/21 04:54:55;;;;;;;17.37;15.97;;;21.60;99.90;;;;;;5016760;28;20461;-81
2022/07/21 04:57:21;;;;;;;16.70;15.30;;;21.60;99.90;;;;;;5023607;28;20454;-79
2022/07/21 04:59:48;;;;;;;18.60;16.70;;;21.60;99.90;;;;;;5021650;28;20627;-81
2022/07/21 05:02:15;;;;;;;16.17;14.87;;;21.60;99.90;;;;;;5018751;28;20446;-81
2022/07/21 05:04:43;;;;;;;18.10;16.50;;;21.60;99.90;;;;;;5019789;28;20435;-81
2022/07/21 05:07:09;;;;;;;19.20;17.70;;;21.80;99.90;;;;;;5017229;28;20945;-80
2022/07/21 05:09:36;;;;;;;18.70;17.10;;;22.00;99.90;;;;;;5017773;28;20454;-81
2022/07/21 05:12:03;;;;;;;18.23;16.83;;;22.00;99.90;;;;;;5015510;28;20695;-81
2022/07/21 05:14:30;;;;;;;20.03;18.20;;;22.00;99.90;;;;;;5016668;28;20482;-81
2022/07/21 05:16:57;;;;;;;18.80;17.10;;;22.10;99.90;;;;;;5023235;28;20435;-80
2022/07/21 05:19:23;;;;;;;19.33;17.53;;;22.20;99.90;;;;;;5021218;28;20449;-80
2022/07/21 05:21:51;;;;;;;18.27;16.70;;;22.40;99.90;;;;;;5016659;28;20446;-81
2022/07/21 05:24:18;;;;;;;17.60;16.07;;;22.60;99.90;;;;;;5012183;28;20446;-81
2022/07/21 05:26:45;;;;;;;17.70;16.00;;;22.90;99.90;;;;;;5012923;28;20438;-79
2022/07/21 05:29:12;;;;;;;17.70;16.23;;;22.90;99.90;;;;;;5014541;28;20840;-80
2022/07/21 05:31:38;;;;;;;19.47;17.90;;;22.60;99.90;;;;;;5012726;28;20456;-81
2022/07/21 05:34:05;;;;;;;17.80;16.40;;;22.80;99.90;;;;;;5012106;28;20478;-79
2022/07/21 05:36:32;;;;;;;18.77;17.27;;;22.90;99.90;;;;;;5014634;28;20447;-80
2022/07/21 05:39:00;;;;;;;18.10;16.50;;;23.00;99.90;;;;;;5017374;28;20526;-80
2022/07/21 05:41:27;;;;;;;17.93;16.43;;;23.10;99.90;;;;;;5019493;28;20443;-81
2022/07/21 05:43:53;;;;;;;19.23;17.50;;;23.10;99.90;;;;;;5012987;28;20440;-80
2022/07/21 05:46:20;;;;;;;20.17;18.40;;;23.10;99.90;;;;;;5011631;28;20454;-81
2022/07/21 05:48:47;;;;;;;20.13;18.03;;;23.20;99.90;;;;;;5011318;28;21086;-80
2022/07/21 05:51:14;;;;;;;20.17;18.43;;;23.20;99.90;;;;;;5013946;28;20450;-81
2022/07/21 05:53:41;;;;;;;19.90;18.30;;;23.30;99.90;;;;;;5010646;28;20482;-80
2022/07/21 05:56:09;;;;;;;20.47;18.67;;;23.40;99.90;;;;;;5013879;28;20457;-80
2022/07/21 05:58:36;;;;;;;18.70;17.20;;;23.30;99.90;;;;;;5014806;28;20459;-81
2022/07/21 06:01:09;;;;;;;20.10;18.20;;;23.40;99.90;;;;;;5015826;28;20625;-83
2022/07/21 06:03:36;;;;;;;18.90;17.20;;;23.60;99.90;;;;;;5015064;28;20442;-82
2022/07/21 06:06:03;;;;;;;17.10;15.43;;;24.10;99.90;;;;;;5015373;28;20442;-83
2022/07/21 06:08:30;;;;;;;16.77;15.37;;;24.50;99.90;;;;;;5016495;28;20679;-82
2022/07/21 06:10:57;;;;;;;19.17;17.57;;;24.70;99.90;;;;;;5013905;28;20440;-83
2022/07/21 06:13:26;;;;;;;17.20;15.70;;;25.10;99.90;;;;;;5010145;28;20501;-83
2022/07/21 06:15:52;;;;;;;16.90;15.40;;;25.60;99.90;;;;;;5019924;28;20527;-81
2022/07/21 06:18:19;;;;;;;15.97;14.60;;;26.20;99.90;;;;;;5028856;28;20476;-82
2022/07/21 06:20:46;;;;;;;16.43;15.17;;;26.90;99.90;;;;;;5022314;28;20457;-82
2022/07/21 06:23:13;;;;;;;16.00;14.80;;;27.10;99.90;;;;;;5028846;28;20443;-83
2022/07/21 06:25:39;;;;;;;15.40;14.17;;;27.30;99.90;;;;;;5036077;28;20419;-83
2022/07/21 06:28:06;;;;;;;16.73;15.43;;;27.00;99.90;;;;;;5035568;28;20450;-81
2022/07/21 06:30:34;;;;;;;15.80;14.40;;;26.50;99.90;;;;;;5015537;28;20445;-82
2022/07/21 06:33:01;;;;;;;17.23;16.03;;;26.20;99.90;;;;;;5015563;28;20448;-82
2022/07/21 06:35:28;;;;;;;15.37;13.97;;;26.10;99.90;;;;;;5027362;28;20479;-81
2022/07/21 06:37:55;;;;;;;14.67;13.37;;;26.40;99.90;;;;;;5018780;28;20451;-84
2022/07/21 06:40:22;;;;;;;15.07;13.90;;;27.30;99.90;;;;;;5017248;28;20461;-84
2022/07/21 06:42:49;;;;;;;12.93;12.03;;;27.50;99.50;;;;;;5010379;28;20450;-84
2022/07/21 06:45:16;;;;;;;14.50;13.20;;;27.70;98.60;;;;;;5025300;28;20467;-84
2022/07/21 06:47:44;;;;;;;13.60;12.43;;;27.40;98.30;;;;;;5009714;28;20465;-83
2022/07/21 06:50:11;;;;;;;13.77;12.67;;;27.10;99.00;;;;;;5002586;28;20455;-82
2022/07/21 06:52:38;;;;;;;14.30;13.00;;;26.90;99.20;;;;;;5016033;28;20417;-81
2022/07/21 06:55:07;;;;;;;12.47;11.43;;;27.40;98.00;;;;;;5011197;28;20478;-82
2022/07/21 06:57:34;;;;;;;13.30;12.20;;;28.80;95.70;;;;;;5013122;28;20543;-84
2022/07/21 07:00:01;;;;;;;11.70;10.80;;;29.60;92.30;;;;;;5004465;28;20441;-85
2022/07/21 07:02:28;;;;;;;11.67;10.20;;;29.00;91.60;;;;;;5011705;28;20445;-83
2022/07/21 07:04:56;;;;;;;12.17;11.27;;;28.30;92.00;;;;;;5002695;28;20448;-82
2022/07/21 07:07:23;;;;;;;12.50;11.57;;;28.30;92.00;;;;;;5003045;28;20538;-84
2022/07/21 07:09:49;;;;;;;11.90;10.87;;;29.40;90.60;;;;;;5014165;28;20540;-84
2022/07/21 07:12:16;;;;;;;10.73;9.93;;;30.80;87.00;;;;;;5019009;28;20457;-84
2022/07/21 07:14:43;;;;;;;11.93;10.90;;;31.40;81.40;;;;;;5013966;28;20487;-84
2022/07/21 07:17:10;;;;;;;10.40;9.70;;;31.10;80.50;;;;;;5013723;28;20473;-83
2022/07/21 07:19:37;;;;;;;11.40;10.27;;;31.70;79.20;;;;;;5018628;28;20456;-83
2022/07/21 07:22:09;;;;;;;11.10;10.20;;;31.10;77.90;;;;;;5024978;28;20449;-83
2022/07/21 07:24:36;;;;;;;10.70;9.90;;;30.00;80.60;;;;;;5020636;28;20539;-86
2022/07/21 07:27:02;;;;;;;11.33;10.50;;;30.00;82.90;;;;;;5018054;28;20458;-85
2022/07/21 07:29:31;;;;;;;12.33;11.33;;;29.90;82.00;;;;;;5014067;28;20446;-86
2022/07/21 07:31:57;;;;;;;11.20;10.40;;;30.10;84.10;;;;;;5033408;28;20447;-86
2022/07/21 07:34:24;;;;;;;11.90;10.67;;;30.40;79.70;;;;;;5036218;28;20491;-87
2022/07/21 07:36:51;;;;;;;10.97;10.27;;;31.60;77.70;;;;;;5041968;23;20487;-85
2022/07/21 07:39:19;;;;;;;9.87;9.17;;;32.90;73.10;;;;;;5016269;28;20973;-87
2022/07/21 07:41:46;;;;;;;10.50;9.70;;;33.90;68.70;;;;;;5015741;28;20519;-86
2022/07/21 07:44:13;;;;;;;9.90;9.10;;;33.60;67.30;;;;;;5015181;28;20485;-86
2022/07/21 07:46:39;;;;;;;10.97;9.97;;;33.70;65.60;;;;;;5015396;28;20460;-85
2022/07/21 07:49:06;;;;;;;10.20;9.40;;;32.60;65.40;;;;;;5015653;28;20444;-86
2022/07/21 07:51:33;;;;;;;9.67;8.97;;;32.20;68.40;;;;;;5015584;28;20532;-85
2022/07/21 07:54:03;;;;;;;10.50;9.50;;;32.20;67.10;;;;;;5016217;28;20500;-85
2022/07/21 07:56:31;;;;;;;10.20;9.20;;;32.40;65.90;;;;;;5015011;28;20476;-85
2022/07/21 07:58:58;;;;;;;9.73;9.10;;;33.30;64.80;;;;;;5014873;28;20444;-85
2022/07/21 08:01:24;;;;;;;10.60;9.80;;;33.70;62.30;;;;;;5017411;28;20873;-86
2022/07/21 08:03:51;;;;;;;10.93;10.13;;;35.10;59.10;;;;;;5019286;28;20878;-85
2022/07/21 08:06:18;;;;;;;9.27;8.67;;;35.30;58.20;;;;;;5019847;28;20464;-85
2022/07/21 08:08:45;;;;;;;10.20;9.40;;;34.90;58.50;;;;;;5029034;28;20452;-86
2022/07/21 08:11:13;;;;;;;8.90;8.20;;;34.70;56.70;;;;;;5028105;28;20446;-85
2022/07/21 08:13:41;;;;;;;9.03;8.43;;;35.40;57.90;;;;;;5022574;28;20541;-85
2022/07/21 08:16:08;;;;;;;9.57;8.67;;;35.90;54.70;;;;;;5020230;28;20457;-85
2022/07/21 08:18:35;;;;;;;9.23;8.43;;;33.60;56.10;;;;;;5021414;28;20456;-86
2022/07/21 08:21:01;;;;;;;9.27;8.37;;;32.80;59.10;;;;;;5022216;28;20464;-86
2022/07/21 08:23:28;;;;;;;9.50;8.60;;;33.20;59.80;;;;;;5020730;28;20454;-85
2022/07/21 08:25:55;;;;;;;8.90;8.20;;;33.80;57.00;;;;;;5021034;28;20463;-86
2022/07/21 08:28:22;;;;;;;8.97;8.20;;;33.90;57.50;;;;;;5021586;28;20876;-83
2022/07/21 08:30:50;;;;;;;9.00;8.40;;;34.20;56.70;;;;;;5024900;28;20460;-85
2022/07/21 08:33:16;;;;;;;9.17;8.40;;;33.80;56.70;;;;;;5019936;28;20512;-84
2022/07/21 08:35:43;;;;;;;9.70;8.70;;;32.80;57.70;;;;;;5022371;28;20497;-86
2022/07/21 08:38:12;;;;;;;8.90;8.20;;;31.80;60.10;;;;;;5023211;28;20477;-85
2022/07/21 08:40:40;;;;;;;9.70;9.00;;;31.30;62.40;;;;;;5023129;28;20488;-84
2022/07/21 08:43:08;;;;;;;8.30;7.70;;;30.70;62.90;;;;;;5023272;28;20458;-84
2022/07/21 08:45:35;;;;;;;8.13;7.53;;;30.20;63.50;;;;;;5027735;28;20438;-86
2022/07/21 08:48:05;;;;;;;9.07;8.27;;;31.00;64.30;;;;;;5039029;28;20451;-87
2022/07/21 08:50:33;;;;;;;8.80;8.20;;;32.80;60.10;;;;;;5031448;28;20973;-86
2022/07/21 08:53:00;;;;;;;8.20;7.63;;;32.70;57.90;;;;;;5024283;28;20456;-85
2022/07/21 08:55:29;;;;;;;8.87;8.17;;;32.30;59.30;;;;;;5020423;28;21076;-85
2022/07/21 08:57:56;;;;;;;8.37;7.77;;;32.00;59.20;;;;;;5021953;28;20498;-85
2022/07/21 09:00:22;;;;;;;9.40;8.80;;;31.30;60.60;;;;;;5022068;28;20449;-85
2022/07/21 09:02:49;;;;;;;8.80;8.00;;;31.70;60.20;;;;;;5021968;28;20453;-85
2022/07/21 09:05:17;;;;;;;8.73;8.13;;;32.90;58.70;;;;;;5023815;28;20789;-84
2022/07/21 09:07:50;;;;;;;8.63;8.00;;;34.80;56.10;;;;;;5021345;28;20472;-85
2022/07/21 09:10:22;;;;;;;8.93;8.10;;;37.00;52.30;;;;;;5018889;28;20446;-86
2022/07/21 09:12:50;;;;;;;7.73;7.20;;;38.70;49.60;;;;;;5019389;28;20448;-85
2022/07/21 09:15:23;;;;;;;7.57;6.87;;;38.50;46.90;;;;;;5019809;28;20904;-85
2022/07/21 09:18:06;;;;;;;8.67;7.97;;;38.80;46.50;;;;;;5017926;28;20470;-86
2022/07/21 09:20:35;;;;;;;7.40;6.80;;;38.80;45.40;;;;;;5017695;28;20448;-85
2022/07/21 09:23:06;;;;;;;8.93;8.33;;;39.60;44.00;;;;;;5017554;28;20507;-85
2022/07/21 09:25:38;;;;;;;8.50;7.80;;;38.00;45.00;;;;;;5020831;28;20446;-85
2022/07/21 09:28:17;;;;;;;8.43;7.63;;;37.40;46.50;;;;;;5023773;28;20476;-85
2022/07/21 09:30:57;;;;;;;8.17;7.47;;;36.70;47.20;;;;;;5021954;28;20461;-83
2022/07/21 09:33:27;;;;;;;8.40;7.67;;;37.00;47.50;;;;;;5021613;28;20460;-84
2022/07/21 09:36:02;;;;;;;7.20;6.60;;;35.70;48.20;;;;;;5020489;28;20510;-84
2022/07/21 09:38:30;;;;;;;7.27;6.67;;;34.80;49.10;;;;;;5022948;28;20455;-82
2022/07/21 09:41:11;;;;;;;8.10;7.27;;;33.80;51.10;;;;;;5020739;28;20447;-84
2022/07/21 09:43:44;;;;;;;7.07;6.50;;;34.00;50.60;;;;;;5020487;28;20455;-82
2022/07/21 09:46:14;;;;;;;7.40;6.90;;;35.40;48.90;;;;;;5020692;28;20471;-83
2022/07/21 09:48:41;;;;;;;8.03;7.33;;;34.70;48.40;;;;;;5020066;28;20911;-83
2022/07/21 09:51:30;;;;;;;5.93;5.53;;;33.60;49.50;;;;;;5020501;28;20559;-84
2022/07/21 09:53:59;;;;;;;6.43;5.93;;;34.10;49.00;;;;;;5018697;28;20461;-83
2022/07/21 09:56:29;;;;;;;6.60;6.10;;;35.30;48.00;;;;;;5017924;28;20464;-83
2022/07/21 09:58:57;;;;;;;6.67;6.17;;;36.80;45.80;;;;;;5017800;28;20454;-83
2022/07/21 10:01:25;;;;;;;7.80;7.20;;;37.00;44.80;;;;;;5018607;28;20511;-83
2022/07/21 10:03:53;;;;;;;8.87;8.17;;;35.60;46.20;;;;;;5019065;28;20456;-85
2022/07/21 10:06:22;;;;;;;7.03;6.47;;;35.60;47.10;;;;;;5019030;28;20470;-84
2022/07/21 10:08:51;;;;;;;7.70;7.10;;;35.60;47.60;;;;;;5017624;28;20461;-83
2022/07/21 10:11:17;;;;;;;7.03;6.43;;;34.90;46.50;;;;;;5017716;28;20455;-83
2022/07/21 10:13:44;;;;;;;6.93;6.10;;;35.10;48.30;;;;;;5024342;28;20463;-84
2022/07/21 10:16:12;;;;;;;6.43;5.93;;;35.10;47.00;;;;;;5024146;28;20495;-83
2022/07/21 10:18:55;;;;;;;6.73;6.13;;;37.10;46.30;;;;;;5020924;28;21133;-82
2022/07/21 10:21:31;;;;;;;8.30;7.60;;;36.50;44.40;;;;;;5026233;28;20460;-83
2022/07/21 10:23:59;;;;;;;6.67;6.17;;;35.50;46.20;;;;;;5018978;28;20456;-83
2022/07/21 10:26:26;;;;;;;8.33;7.63;;;35.70;46.20;;;;;;5017065;28;20469;-84
2022/07/21 10:28:52;;;;;;;5.87;5.47;;;36.10;45.00;;;;;;5016952;28;20452;-83
2022/07/21 10:31:22;;;;;;;7.10;6.50;;;35.50;45.30;;;;;;5017160;28;20457;-84
2022/07/21 10:33:54;;;;;;;8.07;7.37;;;34.40;48.40;;;;;;5017387;28;20458;-84
2022/07/21 10:36:44;;;;;;;8.13;7.27;;;33.30;50.70;;;;;;5016429;28;20492;-83
2022/07/21 10:39:19;;;;;;;6.87;6.37;;;33.90;51.50;;;;;;5016618;28;20488;-83
2022/07/21 10:41:48;;;;;;;6.47;5.87;;;35.90;47.50;;;;;;5016052;28;20453;-83
2022/07/21 10:44:40;;;;;;;7.30;6.70;;;38.10;44.80;;;;;;5015719;28;20528;-83
2022/07/21 10:47:09;;;;;;;6.50;6.03;;;39.80;42.30;;;;;;5014912;28;20477;-84
2022/07/21 10:49:53;;;;;;;6.63;6.13;;;41.10;40.20;;;;;;5019052;28;20470;-84
2022/07/21 10:53:09;;;;;;;7.17;6.47;;;40.80;39.10;;;;;;5029630;28;20434;-82
2022/07/21 10:55:38;;;;;;;5.77;5.37;;;40.00;40.20;;;;;;5021848;28;20493;-83
2022/07/21 10:58:14;;;;;;;6.03;5.43;;;41.10;38.40;;;;;;5017655;28;20462;-84
2022/07/21 11:00:48;;;;;;;6.27;5.87;;;42.40;37.50;;;;;;5013659;28;20530;-85
2022/07/21 11:03:19;;;;;;;6.73;6.23;;;43.60;35.70;;;;;;5013849;28;20458;-81
2022/07/21 11:06:16;;;;;;;6.93;5.93;;;43.30;34.70;;;;;;5013949;28;20967;-82
2022/07/21 11:08:46;;;;;;;6.23;5.73;;;44.00;33.60;;;;;;5013530;28;20455;-82
2022/07/21 11:11:16;;;;;;;5.93;5.50;;;43.70;32.80;;;;;;5016144;28;20545;-82
2022/07/21 11:14:04;;;;;;;5.80;5.30;;;41.80;34.50;;;;;;5028185;28;20467;-81
2022/07/21 11:17:03;;;;;;;6.47;6.07;;;38.90;37.50;;;;;;5016549;28;20493;-81
2022/07/21 11:19:33;;;;;;;6.40;5.90;;;37.20;41.00;;;;;;5016857;28;20454;-82
2022/07/21 11:22:03;;;;;;;6.60;6.10;;;37.40;41.60;;;;;;5014453;28;20533;-82
2022/07/21 11:24:30;;;;;;;5.53;5.13;;;39.00;39.20;;;;;;5015377;28;20962;-82
2022/07/21 11:27:00;;;;;;;6.73;6.23;;;39.00;39.60;;;;;;5017030;28;20485;-82
2022/07/21 11:29:29;;;;;;;5.90;5.40;;;40.40;36.90;;;;;;5036082;28;20442;-80
2022/07/21 11:31:56;;;;;;;6.30;5.80;;;42.10;35.20;;;;;;5030014;28;20501;-82
2022/07/21 11:34:24;;;;;;;5.43;5.13;;;43.80;32.40;;;;;;5015423;28;20446;-81
2022/07/21 11:36:59;;;;;;;5.57;5.07;;;44.60;30.70;;;;;;5019089;28;20676;-82
2022/07/21 11:39:26;;;;;;;6.20;5.20;;;41.80;31.80;;;;;;5019795;28;20446;-84
2022/07/21 11:41:54;;;;;;;5.00;4.60;;;39.80;33.70;;;;;;5020468;28;20461;-84
2022/07/21 11:44:26;;;;;;;4.97;4.57;;;38.00;35.70;;;;;;5025396;28;20499;-81
2022/07/21 11:46:56;;;;;;;5.53;5.03;;;37.60;37.00;;;;;;5026226;28;20472;-84
2022/07/21 11:49:23;;;;;;;4.90;4.50;;;39.00;35.10;;;;;;5030377;28;20448;-85
2022/07/21 11:51:54;;;;;;;5.70;5.23;;;38.40;35.50;;;;;;5030681;28;20449;-82
2022/07/21 11:54:36;;;;;;;5.00;4.60;;;37.10;36.60;;;;;;5024150;28;20475;-83
2022/07/21 11:57:04;;;;;;;5.70;5.20;;;36.10;38.00;;;;;;5022026;28;20471;-83
2022/07/21 11:59:33;;;;;;;5.90;5.30;;;35.30;39.60;;;;;;5023245;28;20539;-83
2022/07/21 12:02:04;;;;;;;5.47;5.07;;;34.50;41.10;;;;;;5019226;28;20461;-82
2022/07/21 12:04:44;;;;;;;5.50;5.07;;;33.90;42.50;;;;;;5020269;28;20452;-82
2022/07/21 12:07:17;;;;;;;5.90;5.37;;;33.40;44.10;;;;;;5020532;28;20474;-83
2022/07/21 12:09:45;;;;;;;5.70;5.20;;;34.90;43.00;;;;;;5021865;28;20471;-81
2022/07/21 12:12:12;;;;;;;5.23;4.83;;;36.70;39.50;;;;;;5020590;28;20556;-82
2022/07/21 12:14:49;;;;;;;6.00;5.00;;;37.00;37.90;;;;;;5020347;28;20456;-83
2022/07/21 12:17:17;;;;;;;5.50;5.00;;;36.50;39.10;;;;;;5020150;28;20457;-84
2022/07/21 12:19:45;;;;;;;6.10;5.50;;;36.50;38.90;;;;;;5017583;28;20444;-87
2022/07/21 12:22:12;;;;;;;5.73;5.23;;;38.20;36.80;;;;;;5018248;28;20450;-83
2022/07/21 12:24:50;;;;;;;5.87;5.37;;;40.10;35.10;;;;;;5018138;28;20552;-82
2022/07/21 12:27:19;;;;;;;5.27;4.77;;;41.00;33.20;;;;;;5018795;28;20848;-82
2022/07/21 12:29:47;;;;;;;5.90;5.50;;;41.80;32.30;;;;;;5019424;28;20442;-82
2022/07/21 12:32:15;;;;;;;7.17;5.40;;;42.30;31.60;;;;;;5022584;28;20564;-82
2022/07/21 12:34:51;;;;;;;6.40;5.90;;;40.50;33.30;;;;;;5025740;28;20519;-82
2022/07/21 12:37:18;;;;;;;7.17;6.67;;;38.70;35.90;;;;;;5027622;28;20480;-82
2022/07/21 12:40:01;;;;;;;7.40;6.90;;;36.80;38.90;;;;;;5020698;28;20459;-84
2022/07/21 12:42:30;;;;;;;7.80;7.10;;;35.50;41.40;;;;;;5023410;28;20868;-82
2022/07/21 12:44:59;;;;;;;8.30;7.60;;;34.80;42.80;;;;;;5020333;28;20470;-82
2022/07/21 12:47:26;;;;;;;8.20;7.60;;;34.20;44.30;;;;;;5026578;28;20966;-82